Terminal Aerodrome Forecast
Issued by NWS Billings, MT

Home | Current Version | Previous Version | Text Only | Print | Product List | Glossary Off
Versions: 1 2 3 4 5 6 7 8 9 10 11 12 13 14 15 16 17 18 19 20 21 22 23 24 25 26

000
FTUS45 KBYZ 171134
TAFMLS
TAF
KMLS 171134Z 1712/1812 VRB05KT P6SM FEW070
     FM171800 30012G20KT P6SM SCT070
     FM172100 30012G20KT P6SM VCTS SCT070CB
     FM180300 31008KT P6SM FEW070=

USA.gov is the U.S. government's official web portal to all federal, state and local government web resources and services.